메인 페이지
METAR-TAF:

METAR-TAF

공항 :

자그레브 국제공항

자그레브, 크로아티아

위도: 45-44N, 경도: 016-04E, 고도: 106m

현재 날씨관측

예보는 22분 전, 02:30시(UTC)에 발표되었습니다.
무풍
온도 3°C
습도 100%
기압 1022 hPa
시정 10km 이상
고도 400ft 상공 구름 조금
고도 2500ft 상공 구름 보통
약한비

METAR: LDZA 190230Z 00000KT 9999 -RA FEW004 SCT025 03/03 Q1022 NOSIG

시각: 03:52 (02:52 UTC)

예보

예보는 3 시간 27분 전, 23:25시(UTC)에 발표되었습니다.
예보 대상 시간: 19일 00시부터 20일 00시까지 (UTC)
남서5kt
시정 10km 이상
고도 400ft 상공 구름 조금
고도 3000ft 상공 구름 보통
확률 40% :
일시적
19일 00시부터 19일 10시까지 (UTC)
고도 1000ft 상공 구름 많음
고도 2500ft 상공 흐림
확률 30% :
일시적
19일 00시부터 19일 06시까지 (UTC)
시정: 1200m
고도 500ft 상공 구름 많음
고도 2000ft 상공 흐림
약한비, 박무
전환 중
19일 06시부터 19일 08시까지 (UTC)
북북동8kt
확률 30% :
일시적
19일 09시부터 19일 18시까지 (UTC)
고도 2500ft 상공 구름 조금, 타워링 적운.
고도 3500ft 상공 구름 많음
소나기

TAF: LDZA 182325Z 1900/2000 23005KT 9999 FEW004 SCT030 TX08/1913Z TN02/1900Z PROB40 TEMPO 1900/1910 RA BKN010 OVC025 PROB30 TEMPO 1900/1906 1200 -RA BR BKN005 OVC020 BECMG 1906/1908 03008KT PROB30 TEMPO 1909/1918 SHRA FEW025TCU BKN035

4,000개 이상의 공항 관측 자료 및 예보 (METAR 및 TAF 보고).

지도상에서 검색 가능한 기상관측소가 노란 점과 빨간 점으로 표시되어 있습니다.

기상관측소 명을 보려면 표시 위로 마우스를 이동하세요.

날씨 관측과 예보를 보려면 클릭하세요.

지도 변경 : 확대하려면 엑스 표시가 있는 녹색 버튼, 축소하려면 빼기 표시가 있는 녹색 버튼, 다음 페이지의 지도를 보려면 녹색 화살표를 클릭하세요.


METAR-TAF: